createdAt,value
2023-04-20T00:01:54.633Z,1.90
2023-04-20T00:04:29.280Z,1.65
2023-04-20T00:07:03.339Z,1.80
2023-04-20T00:09:43.266Z,1.50
2023-04-20T00:12:10.552Z,2.05
2023-04-20T00:14:37.917Z,1.73
2023-04-20T00:17:12.279Z,1.90
2023-04-20T00:19:39.461Z,2.00
2023-04-20T00:22:13.331Z,2.00
2023-04-20T00:24:40.648Z,1.80
2023-04-20T00:27:07.819Z,1.58
2023-04-20T00:29:41.292Z,1.98
2023-04-20T00:32:08.453Z,1.70
2023-04-20T00:34:42.340Z,1.60
2023-04-20T00:37:09.678Z,2.10
2023-04-20T00:39:36.783Z,1.83
2023-04-20T00:42:14.367Z,2.03
2023-04-20T00:44:41.535Z,2.45
2023-04-20T00:47:15.369Z,1.80
2023-04-20T00:49:42.644Z,1.70
2023-04-20T00:52:10.109Z,2.30
2023-04-20T00:54:44.290Z,1.67
2023-04-20T00:57:14.013Z,1.77
2023-04-20T00:59:48.434Z,1.70
2023-04-20T01:02:15.661Z,1.60
2023-04-20T01:04:43.024Z,1.58
2023-04-20T01:07:17.363Z,1.92
2023-04-20T01:09:51.330Z,1.92
2023-04-20T01:12:25.313Z,2.05
2023-04-20T01:14:52.596Z,1.90
2023-04-20T01:17:26.538Z,1.73
2023-04-20T01:19:53.794Z,1.90
2023-04-20T01:22:21.482Z,2.08
2023-04-20T01:24:55.320Z,2.00
2023-04-20T01:27:22.539Z,1.88
2023-04-20T01:29:49.614Z,2.13
2023-04-20T01:32:23.372Z,1.92
2023-04-20T01:34:50.581Z,1.73
2023-04-20T01:37:24.528Z,2.00
2023-04-20T01:39:51.809Z,1.90
2023-04-20T01:42:18.965Z,2.00
2023-04-20T01:44:52.419Z,1.98
2023-04-20T01:47:19.806Z,2.05
2023-04-20T01:49:46.944Z,1.88
2023-04-20T01:52:20.369Z,2.13
2023-04-20T01:54:47.523Z,2.05
2023-04-20T01:57:21.351Z,2.03
2023-04-20T01:59:48.603Z,1.90
2023-04-20T02:02:15.781Z,2.20
2023-04-20T02:04:49.301Z,2.22
2023-04-20T02:07:36.231Z,2.22
2023-04-20T02:10:10.434Z,2.20
2023-04-20T02:12:37.656Z,2.00
2023-04-20T02:15:05.414Z,1.92
2023-04-20T02:17:39.449Z,2.13
2023-04-20T02:20:07.181Z,1.83
2023-04-20T02:22:35.118Z,2.00
2023-04-20T02:25:09.416Z,1.95
2023-04-20T02:27:43.239Z,1.70
2023-04-20T02:30:10.685Z,1.80
2023-04-20T02:32:38.102Z,1.90
2023-04-20T02:35:12.294Z,2.10
2023-04-20T02:37:46.356Z,2.17
2023-04-20T02:40:14.165Z,2.20
2023-04-20T02:42:41.455Z,2.20
2023-04-20T02:45:15.379Z,2.25
2023-04-20T02:47:49.372Z,2.25
2023-04-20T02:50:16.728Z,2.00
2023-04-20T02:52:44.059Z,2.10
2023-04-20T02:55:17.300Z,2.30
2023-04-20T02:57:44.558Z,2.15
2023-04-20T03:00:20.437Z,2.28
2023-04-20T03:02:47.996Z,2.30
2023-04-20T03:05:15.235Z,2.63
2023-04-20T03:07:49.348Z,2.53
2023-04-20T03:10:23.252Z,2.60
2023-04-20T03:12:57.528Z,2.40
2023-04-20T03:15:25.128Z,2.40
2023-04-20T03:20:26.384Z,2.10
2023-04-20T03:22:53.631Z,2.10
2023-04-20T03:25:28.442Z,2.10
2023-04-20T03:27:55.713Z,2.33
2023-04-20T03:30:22.848Z,2.30
2023-04-20T03:32:56.625Z,1.90
2023-04-20T03:35:23.908Z,2.30
2023-04-20T03:37:57.458Z,1.98
2023-04-20T03:40:24.746Z,2.40
2023-04-20T03:42:51.865Z,2.15
2023-04-20T03:45:25.288Z,1.90
2023-04-20T03:47:52.769Z,2.20
2023-04-20T03:52:53.582Z,2.00
2023-04-20T03:55:20.666Z,2.20
2023-04-20T03:57:54.310Z,2.03
2023-04-20T04:00:22.005Z,1.77
2023-04-20T04:02:55.653Z,2.92
2023-04-20T04:05:23.080Z,2.85
2023-04-20T04:08:03.336Z,2.17
2023-04-20T04:10:37.407Z,2.20
2023-04-20T04:13:04.643Z,2.13
2023-04-20T04:15:32.031Z,2.00
2023-04-20T04:18:05.539Z,2.20
2023-04-20T04:20:32.839Z,2.05
2023-04-20T04:23:06.462Z,2.58
2023-04-20T04:25:33.806Z,2.45
2023-04-20T04:28:00.945Z,2.20
2023-04-20T04:30:34.323Z,2.20
2023-04-20T04:33:04.747Z,2.20
2023-04-20T04:35:40.587Z,1.80
2023-04-20T04:38:07.925Z,1.60
2023-04-20T04:40:35.024Z,2.08
2023-04-20T04:43:09.365Z,1.88
2023-04-20T04:45:40.945Z,1.63
2023-04-20T04:48:18.461Z,1.80
2023-04-20T04:50:45.809Z,2.08
2023-04-20T04:53:12.915Z,1.58
2023-04-20T04:55:46.414Z,1.70
2023-04-20T04:58:13.601Z,1.73
2023-04-20T05:00:40.935Z,1.90
2023-04-20T05:03:14.678Z,2.15
2023-04-20T05:05:42.140Z,1.70
2023-04-20T05:08:23.613Z,2.20
2023-04-20T05:10:51.046Z,1.58
2023-04-20T05:13:18.182Z,1.75
2023-04-20T05:15:52.530Z,1.80
2023-04-20T05:18:19.760Z,1.98
2023-04-20T05:20:46.870Z,1.88
2023-04-20T05:23:20.446Z,1.80
2023-04-20T05:25:47.657Z,2.00
2023-04-20T05:28:21.467Z,2.20
2023-04-20T05:30:48.697Z,1.95
2023-04-20T05:33:16.048Z,1.63
2023-04-20T05:35:49.420Z,1.90
2023-04-20T05:38:16.659Z,2.00
2023-04-20T05:40:50.745Z,1.70
2023-04-20T05:43:19.162Z,1.40
2023-04-20T05:45:46.978Z,1.90
2023-04-20T05:48:20.412Z,1.67
2023-04-20T05:50:48.098Z,1.70
2023-04-20T05:55:48.438Z,1.00
2023-04-20T05:58:15.906Z,1.60
2023-04-20T06:00:49.396Z,1.65
2023-04-20T06:03:16.777Z,1.55
2023-04-20T06:08:18.465Z,1.35
2023-04-20T06:10:52.350Z,1.10
2023-04-20T06:13:26.410Z,1.40
2023-04-20T06:15:54.111Z,1.38
2023-04-20T06:18:21.441Z,1.10
2023-04-20T06:20:55.454Z,1.25
2023-04-20T06:23:22.642Z,1.25
2023-04-20T06:25:56.504Z,1.25
2023-04-20T06:28:23.676Z,1.25
2023-04-20T06:30:51.040Z,1.40
2023-04-20T06:33:24.467Z,1.60
2023-04-20T06:35:54.424Z,1.27
2023-04-20T06:38:28.504Z,1.20
2023-04-20T06:40:58.800Z,1.27
2023-04-20T06:43:26.245Z,1.42
2023-04-20T06:46:00.342Z,1.20
2023-04-20T06:48:31.424Z,1.20
2023-04-20T06:51:06.590Z,1.50
2023-04-20T06:53:33.772Z,1.20
2023-04-20T06:56:00.975Z,1.35
2023-04-20T06:58:34.391Z,1.25
2023-04-20T07:01:01.587Z,1.23
2023-04-20T07:03:35.606Z,1.17
2023-04-20T07:06:02.936Z,1.20
2023-04-20T07:08:49.487Z,1.27
2023-04-20T07:11:16.718Z,0.80
2023-04-20T07:13:43.899Z,1.05
2023-04-20T07:16:17.512Z,1.10
2023-04-20T07:18:44.694Z,1.38
2023-04-20T07:21:18.468Z,1.23
2023-04-20T07:23:45.748Z,1.20
2023-04-20T07:26:12.869Z,1.38
2023-04-20T07:28:46.363Z,1.20
2023-04-20T07:31:13.542Z,1.05
2023-04-20T07:33:47.413Z,1.13
2023-04-20T07:36:14.700Z,1.00
2023-04-20T07:38:41.819Z,1.00
2023-04-20T07:41:16.439Z,0.90
2023-04-20T07:43:44.725Z,1.20
2023-04-20T07:46:18.645Z,1.33
2023-04-20T07:48:45.952Z,1.10
2023-04-20T07:51:13.051Z,1.10
2023-04-20T07:53:46.483Z,1.30
2023-04-20T07:56:13.627Z,0.90
2023-04-20T07:58:41.020Z,1.05
2023-04-20T08:01:14.476Z,1.00
2023-04-20T08:03:42.240Z,0.90
2023-04-20T08:06:17.547Z,1.30
2023-04-20T08:09:04.435Z,1.20
2023-04-20T08:11:38.569Z,0.98
2023-04-20T08:14:06.018Z,1.63
2023-04-20T08:16:33.539Z,1.10
2023-04-20T08:19:08.484Z,1.50
2023-04-20T08:21:35.680Z,1.10
2023-04-20T08:24:02.897Z,1.05
2023-04-20T08:26:36.409Z,1.05
2023-04-20T08:29:04.108Z,1.02
2023-04-20T08:31:38.506Z,1.13
2023-04-20T08:34:05.935Z,1.20
2023-04-20T08:36:39.533Z,1.40
2023-04-20T08:39:19.616Z,1.13
2023-04-20T08:41:54.510Z,1.30
2023-04-20T08:44:21.881Z,1.33
2023-04-20T08:46:49.978Z,1.40
2023-04-20T08:49:24.403Z,1.15
2023-04-20T08:51:51.617Z,1.10
2023-04-20T08:54:32.518Z,1.23
2023-04-20T08:56:59.807Z,1.40
2023-04-20T08:59:43.614Z,1.40
2023-04-20T09:02:14.944Z,1.10
2023-04-20T09:04:49.711Z,1.25
2023-04-20T09:07:20.708Z,1.40
2023-04-20T09:10:14.567Z,1.20
2023-04-20T09:12:42.447Z,1.13
2023-04-20T09:15:10.452Z,1.55
2023-04-20T09:17:47.484Z,1.33
2023-04-20T09:20:15.027Z,1.40
2023-04-20T09:22:48.368Z,1.30
2023-04-20T09:25:19.045Z,1.65
2023-04-20T09:28:02.433Z,1.42
2023-04-20T09:30:42.888Z,1.15
2023-04-20T09:33:21.410Z,1.40
2023-04-20T09:35:55.323Z,1.40
2023-04-20T09:38:27.538Z,1.50
2023-04-20T09:41:01.471Z,1.13
2023-04-20T09:43:30.861Z,1.30
2023-04-20T09:45:58.335Z,1.20
2023-04-20T09:48:32.434Z,1.50
2023-04-20T09:51:01.987Z,1.00
2023-04-20T09:53:35.543Z,1.50
2023-04-20T09:56:03.038Z,1.20
2023-04-20T09:58:33.166Z,1.83
2023-04-20T10:01:07.554Z,1.42
2023-04-20T10:03:35.166Z,1.23
2023-04-20T10:06:02.975Z,1.50
2023-04-20T10:11:10.412Z,1.60
2023-04-20T10:13:44.592Z,1.35
2023-04-20T10:16:18.766Z,1.60
2023-04-20T10:19:03.471Z,1.05
2023-04-20T10:21:32.405Z,1.73
2023-04-20T10:24:10.425Z,1.27
2023-04-20T10:26:41.772Z,1.50
2023-04-20T10:29:09.022Z,1.20
2023-04-20T10:31:43.480Z,1.20
2023-04-20T10:34:10.814Z,1.38
2023-04-20T10:36:45.432Z,1.33
2023-04-20T10:39:20.120Z,1.40
2023-04-20T10:42:01.659Z,1.30
2023-04-20T10:44:29.171Z,1.30
2023-04-20T10:49:35.436Z,1.20
2023-04-20T10:52:08.136Z,1.40
2023-04-20T10:54:47.485Z,1.10
2023-04-20T10:57:17.114Z,1.80
2023-04-20T10:59:44.295Z,1.17
2023-04-20T11:02:20.587Z,1.20
2023-04-20T11:04:47.989Z,1.30
2023-04-20T11:07:21.433Z,1.33
2023-04-20T11:10:00.495Z,1.30
2023-04-20T11:12:46.434Z,1.13
2023-04-20T11:15:13.974Z,1.48
2023-04-20T11:20:17.036Z,1.23
2023-04-20T11:22:44.732Z,1.30
2023-04-20T11:27:45.788Z,1.77
2023-04-20T11:30:13.085Z,1.17
2023-04-20T11:32:46.566Z,1.38
2023-04-20T11:35:21.424Z,1.33
2023-04-20T11:37:53.659Z,1.20
2023-04-20T11:40:21.253Z,1.50
2023-04-20T11:45:21.937Z,1.30
2023-04-20T11:47:55.827Z,1.35
2023-04-20T15:41:25.679Z,1.80
2023-04-20T15:43:59.857Z,1.40
2023-04-20T15:46:33.741Z,1.40
2023-04-20T15:49:01.032Z,1.38
2023-04-20T15:51:28.201Z,1.80
2023-04-20T15:54:01.604Z,1.52
2023-04-20T15:56:28.845Z,1.35
2023-04-20T15:59:02.669Z,1.98
2023-04-20T16:01:29.897Z,1.67
2023-04-20T16:03:57.171Z,1.67
2023-04-20T16:06:30.522Z,1.63
2023-04-20T16:08:57.776Z,1.42
2023-04-20T16:11:31.688Z,1.08
2023-04-20T16:13:58.909Z,1.40
2023-04-20T16:16:26.243Z,1.40
2023-04-20T16:19:00.646Z,1.60
2023-04-20T16:21:28.013Z,1.52
2023-04-20T16:24:03.567Z,1.40
2023-04-20T16:26:30.771Z,1.38
2023-04-20T16:28:57.862Z,1.38
2023-04-20T16:31:32.817Z,1.40
2023-04-20T16:34:00.688Z,1.40
2023-04-20T16:36:27.997Z,1.40
2023-04-20T16:39:01.777Z,1.60
2023-04-20T16:41:35.939Z,1.52
2023-04-20T16:44:19.722Z,1.33
2023-04-20T16:46:49.054Z,1.42
2023-04-20T16:49:16.290Z,1.42
2023-04-20T16:51:49.648Z,1.38
2023-04-20T16:54:17.091Z,1.52
2023-04-20T16:56:50.699Z,1.33
2023-04-20T16:59:17.936Z,1.70
2023-04-20T17:01:45.166Z,1.52
2023-04-20T17:04:18.997Z,1.33
2023-04-20T17:06:46.750Z,1.40
2023-04-20T17:09:20.712Z,1.17
2023-04-20T17:11:48.310Z,1.30
2023-04-20T17:16:49.714Z,1.38
2023-04-20T17:19:17.567Z,1.65
2023-04-20T17:21:52.729Z,1.52
2023-04-20T17:24:20.088Z,1.52
2023-04-20T17:26:47.390Z,1.35
2023-04-20T17:29:21.580Z,1.50
2023-04-20T17:31:48.794Z,1.42
2023-04-20T17:34:16.154Z,1.48
2023-04-20T17:36:49.664Z,1.40
2023-04-20T17:39:16.890Z,1.98
2023-04-20T17:41:57.614Z,1.85
2023-04-20T17:44:24.800Z,1.48
2023-04-20T17:46:51.879Z,1.25
2023-04-20T17:49:25.648Z,1.42
2023-04-20T17:51:52.797Z,1.63
2023-04-20T17:54:26.618Z,1.70
2023-04-20T17:56:53.858Z,1.42
2023-04-20T17:59:21.125Z,1.17
2023-04-20T18:01:55.656Z,1.52
2023-04-20T18:04:23.315Z,1.60
2023-04-20T18:06:57.617Z,1.40
2023-04-20T18:09:24.845Z,1.52
2023-04-20T18:11:52.043Z,1.33
2023-04-20T18:14:25.620Z,1.75
2023-04-20T18:16:54.849Z,1.50
2023-04-20T18:19:29.597Z,1.42
2023-04-20T18:21:56.886Z,1.55
2023-04-20T18:24:23.992Z,1.50
2023-04-20T18:26:57.683Z,1.60
2023-04-20T18:29:24.855Z,1.50
2023-04-20T18:31:59.793Z,1.30
2023-04-20T18:34:30.105Z,1.50
2023-04-20T18:36:57.493Z,1.33
2023-04-20T18:39:31.571Z,1.40
2023-04-20T18:42:19.535Z,1.77
2023-04-20T18:44:53.880Z,1.80
2023-04-20T18:47:22.166Z,1.23
2023-04-20T18:49:49.312Z,1.50
2023-04-20T18:52:22.613Z,1.48
2023-04-20T18:54:49.919Z,1.73
2023-04-20T18:57:23.630Z,1.60
2023-04-20T18:59:50.900Z,1.73
2023-04-20T19:02:18.274Z,1.35
2023-04-20T19:04:52.657Z,1.50
2023-04-20T19:07:19.970Z,1.42
2023-04-20T19:09:47.097Z,1.83
2023-04-20T19:12:20.572Z,1.67
2023-04-20T19:14:49.206Z,1.50
2023-04-20T19:17:23.585Z,1.77
2023-04-20T19:19:51.062Z,1.65
2023-04-20T19:22:24.618Z,1.40
2023-04-20T19:24:51.787Z,1.65
2023-04-20T19:27:18.962Z,1.65
2023-04-20T19:29:52.671Z,1.60
2023-04-20T19:32:19.890Z,1.45
2023-04-20T19:35:03.754Z,1.50
2023-04-20T19:37:30.974Z,2.22
2023-04-20T19:40:12.667Z,1.90
2023-04-20T19:42:48.546Z,1.80
2023-04-20T19:45:22.650Z,1.70
2023-04-20T19:47:56.597Z,1.60
2023-04-20T19:50:30.779Z,1.55
2023-04-20T19:52:58.182Z,1.85
2023-04-20T19:55:25.434Z,1.80
2023-04-20T19:57:59.592Z,1.65
2023-04-20T20:00:26.758Z,1.50
2023-04-20T20:03:00.894Z,1.63
2023-04-20T20:05:28.162Z,1.42
2023-04-20T20:07:55.365Z,1.77
2023-04-20T20:10:29.705Z,1.80
2023-04-20T20:12:56.956Z,1.65
2023-04-20T20:15:30.742Z,1.70
2023-04-20T20:17:59.382Z,1.40
2023-04-20T20:20:39.673Z,1.60
2023-04-20T20:23:06.896Z,1.80
2023-04-20T20:25:35.240Z,2.10
2023-04-20T20:28:09.598Z,1.70
2023-04-20T20:30:36.840Z,2.13
2023-04-20T20:33:10.783Z,1.65
2023-04-20T20:35:38.378Z,1.80
2023-04-20T20:40:42.639Z,1.83
2023-04-20T20:43:24.528Z,1.70
2023-04-20T20:45:58.647Z,1.73
2023-04-20T20:48:32.653Z,1.90
2023-04-20T20:50:59.892Z,1.80
2023-04-20T20:53:27.144Z,2.53
2023-04-20T20:56:01.881Z,1.75
2023-04-20T20:58:29.152Z,1.90
2023-04-20T21:00:56.323Z,2.08
2023-04-20T21:03:29.921Z,1.88
2023-04-20T21:05:57.220Z,1.85
2023-04-20T21:08:30.841Z,1.77
2023-04-20T21:10:57.944Z,1.75
2023-04-20T21:13:25.214Z,2.05
2023-04-20T21:15:58.651Z,1.67
2023-04-20T21:18:26.059Z,1.73
2023-04-20T21:20:59.753Z,2.20
2023-04-20T21:23:26.862Z,2.00
2023-04-20T21:25:54.002Z,2.10
2023-04-20T21:28:27.874Z,2.00
2023-04-20T21:30:55.082Z,1.98
2023-04-20T21:33:22.370Z,2.10
2023-04-20T21:35:58.821Z,2.40
2023-04-20T21:38:26.310Z,1.92
2023-04-20T21:40:53.597Z,1.88
2023-04-20T21:43:27.678Z,1.90
2023-04-20T21:46:01.648Z,2.53
2023-04-20T21:48:35.724Z,2.03
2023-04-20T21:51:03.114Z,1.80
2023-04-20T21:53:30.580Z,2.47
2023-04-20T21:56:04.685Z,1.80
2023-04-20T21:58:32.026Z,2.38
2023-04-20T22:01:05.806Z,1.90
2023-04-20T22:03:37.407Z,1.95
2023-04-20T22:06:13.089Z,2.28
2023-04-20T22:08:40.312Z,2.00
2023-04-20T22:11:07.938Z,2.00
2023-04-20T22:13:42.666Z,2.10
2023-04-20T22:16:10.002Z,1.95
2023-04-20T22:18:43.732Z,1.80
2023-04-20T22:21:10.956Z,1.98
2023-04-20T22:23:38.079Z,2.20
2023-04-20T22:26:12.788Z,1.77
2023-04-20T22:28:40.126Z,1.80
2023-04-20T22:31:13.686Z,1.92
2023-04-20T22:33:40.811Z,2.20
2023-04-20T22:36:08.306Z,1.73
2023-04-20T22:38:42.682Z,2.03
2023-04-20T22:41:10.147Z,2.10
2023-04-20T22:43:50.824Z,2.08
2023-04-20T22:46:18.021Z,2.17
2023-04-20T22:48:48.512Z,2.22
2023-04-20T22:51:23.681Z,2.10
2023-04-20T22:53:50.883Z,1.90
2023-04-20T22:56:24.820Z,2.53
2023-04-20T22:58:51.984Z,2.20
2023-04-20T23:01:19.306Z,2.00
2023-04-20T23:03:52.855Z,1.73
2023-04-20T23:06:21.965Z,2.28
2023-04-20T23:08:55.817Z,1.83
2023-04-20T23:11:23.015Z,2.28
2023-04-20T23:13:50.610Z,2.10
2023-04-20T23:18:51.845Z,2.08
2023-04-20T23:21:25.709Z,2.33
2023-04-20T23:23:52.957Z,2.30
2023-04-20T23:26:20.918Z,2.28
2023-04-20T23:28:54.926Z,1.85
2023-04-20T23:31:22.172Z,2.17
2023-04-20T23:33:55.730Z,1.92
2023-04-20T23:36:22.859Z,2.10
2023-04-20T23:38:50.225Z,1.80
2023-04-20T23:41:23.699Z,2.22
2023-04-20T23:44:10.586Z,2.20
2023-04-20T23:46:44.797Z,2.47
2023-04-20T23:49:11.997Z,2.10
2023-04-20T23:51:39.096Z,2.42
2023-04-20T23:54:12.931Z,1.90
2023-04-20T23:56:40.203Z,2.20
2023-04-20T23:59:07.293Z,2.35
